Depalpur Weather



Depalpur's Current Weather

Temprature 29.062o broken clouds

broken clouds

Rain: 0 %

Min Temprature29.062o
Max Temprature29.062o
Humidity42
Wind Speed6.16 m/h
Sun Rise05:06:22
Sun Set18:58:19
Current Time: 24-May-2019 04:01:21
Lat/Lon: 30.67, 73.65




Depalpur's Geo Location



Depalpur's Weather Forecast

Time Overall Temp Min Temp Max Temp Humidity Wind Speed Rain
24-May-2019 (Fri)
05:00:00 broken clouds 27.050 27.050 29.062 42 6.16 m/h 0 %
08:00:00 clear sky 30.940 30.940 32.450 36 4.28 m/h 0 %
11:00:00 clear sky 36.440 36.440 37.450 24 1.67 m/h 0 %
14:00:00 clear sky 39.850 39.850 40.350 18 1.27 m/h 0 %
17:00:00 light rain 37.350 37.350 37.350 20 2.55 m/h 125 %
20:00:00 scattered clouds 35.289 35.289 35.289 22 2.97 m/h 0 %
23:00:00 light rain 32.489 32.489 32.489 29 4.79 m/h 81 %
25-May-2019 (Sat)
02:00:00 clear sky 29.389 29.389 29.389 36 4.99 m/h 0 %
05:00:00 clear sky 28.320 28.320 28.320 37 1.52 m/h 0 %
08:00:00 clear sky 32.938 32.938 32.938 27 2.61 m/h 0 %
11:00:00 clear sky 37.582 37.582 37.582 19 4.01 m/h 0 %
14:00:00 clear sky 40.280 40.280 40.280 14 5.18 m/h 0 %
17:00:00 clear sky 39.435 39.435 39.435 14 5.01 m/h 0 %
20:00:00 clear sky 35.387 35.387 35.387 18 2.75 m/h 0 %
23:00:00 clear sky 33.218 33.218 33.218 21 1.99 m/h 0 %
26-May-2019 (Sun)
02:00:00 clear sky 31.399 31.399 31.399 23 2.22 m/h 0 %
05:00:00 clear sky 30.150 30.150 30.150 24 2.89 m/h 0 %
08:00:00 clear sky 35.550 35.550 35.550 18 3.26 m/h 0 %
11:00:00 clear sky 40.979 40.979 40.979 12 0.91 m/h 0 %
14:00:00 clear sky 42.306 42.306 42.306 10 2.32 m/h 0 %
17:00:00 clear sky 42.550 42.550 42.550 10 2.99 m/h 0 %
20:00:00 clear sky 38.450 38.450 38.450 12 5.08 m/h 0 %
23:00:00 clear sky 35.450 35.450 35.450 16 4.84 m/h 0 %
27-May-2019 (Mon)
02:00:00 clear sky 33.050 33.050 33.050 18 3.84 m/h 0 %
05:00:00 clear sky 30.950 30.950 30.950 18 3.45 m/h 0 %
08:00:00 clear sky 36.250 36.250 36.250 14 3.57 m/h 0 %
11:00:00 clear sky 41.060 41.060 41.060 8 2.17 m/h 0 %
14:00:00 clear sky 42.840 42.840 42.840 8 2.48 m/h 0 %
17:00:00 clear sky 42.850 42.850 42.850 7 3.45 m/h 0 %
20:00:00 clear sky 38.114 38.114 38.114 10 3.27 m/h 0 %
23:00:00 clear sky 35.587 35.587 35.587 11 3.94 m/h 0 %
28-May-2019 (Tue)
02:00:00 clear sky 33.091 33.091 33.091 13 3.59 m/h 0 %
05:00:00 clear sky 31.464 31.464 31.464 12 2.86 m/h 0 %
08:00:00 broken clouds 37.183 37.183 37.183 7 3.25 m/h 0 %
11:00:00 scattered clouds 42.222 42.222 42.222 5 2.46 m/h 0 %
14:00:00 clear sky 44.594 44.594 44.594 6 1.65 m/h 0 %
17:00:00 clear sky 44.114 44.114 44.114 5 3.26 m/h 0 %
20:00:00 clear sky 38.857 38.857 38.857 7 3.18 m/h 0 %
23:00:00 clear sky 35.928 35.928 35.928 8 2.77 m/h 0 %
29-May-2019 (Wed)
02:00:00 clear sky 33.629 33.629 33.629 10 3.42 m/h 0 %

Famous Cities (60)